Time;durP1;ratioP1;P1;durP2;ratioP2;P2;SDS_P1;SDS_P2;PMS_P1;PMS_P2;Temp;Humidity;BMP_temperature;BMP_pressure;BME280_temperature;BME280_humidity;BME280_pressure;Samples;Min_cycle;Max_cycle;Signal;HPM_P1;HPM_P2
2022/05/23 00:01:31;;;;;;;6.57;2.80;;;19.30;94.70;;;;;;4199704;28;20033;-67
2022/05/23 00:03:32;;;;;;;7.55;3.50;;;19.20;95.00;;;;;;4201033;28;20044;-67
2022/05/23 00:05:33;;;;;;;4.72;2.95;;;19.20;94.90;;;;;;4197061;28;20040;-67
2022/05/23 00:07:41;;;;;;;4.03;2.60;;;19.10;95.00;;;;;;4199808;28;20432;-67
2022/05/23 00:09:42;;;;;;;6.07;3.33;;;19.20;95.40;;;;;;4196959;28;20403;-67
2022/05/23 00:11:43;;;;;;;4.05;2.88;;;19.20;95.40;;;;;;4200289;28;20438;-67
2022/05/23 00:13:44;;;;;;;5.47;2.85;;;19.10;95.30;;;;;;4202447;28;20040;-67
2022/05/23 00:15:44;;;;;;;4.57;2.75;;;19.20;95.80;;;;;;4197735;28;20450;-67
2022/05/23 00:17:45;;;;;;;5.47;2.88;;;19.20;95.60;;;;;;4198019;28;20036;-67
2022/05/23 00:19:46;;;;;;;4.90;2.92;;;19.30;95.40;;;;;;4202460;28;20089;-67
2022/05/23 00:21:47;;;;;;;9.10;3.22;;;19.30;95.20;;;;;;4199304;28;20037;-67
2022/05/23 00:23:47;;;;;;;7.25;2.97;;;19.30;95.50;;;;;;4199063;28;20395;-67
2022/05/23 00:25:49;;;;;;;6.63;2.88;;;19.40;95.30;;;;;;4198506;28;20031;-67
2022/05/23 00:27:50;;;;;;;4.40;2.75;;;19.40;95.40;;;;;;4200740;28;20265;-67
2022/05/23 00:29:52;;;;;;;3.55;2.28;;;19.40;95.00;;;;;;4202058;28;20644;-67
2022/05/23 00:36:33;;;;;;;4.38;2.60;;;19.50;94.90;;;;;;4194106;28;20372;-67
2022/05/23 00:38:33;;;;;;;;;;;19.50;95.30;;;;;;4200216;28;20445;-67
2022/05/23 00:40:46;;;;;;;5.20;2.20;;;19.50;94.80;;;;;;4200044;28;19955;-67
2022/05/23 00:45:20;;;;;;;5.13;2.33;;;19.50;95.10;;;;;;4141852;28;20006;-67
2022/05/23 00:47:23;;;;;;;5.55;2.92;;;19.50;94.70;;;;;;4197924;28;20132;-67
2022/05/23 00:49:30;;;;;;;6.22;2.60;;;19.40;94.60;;;;;;4199756;28;20083;-67
2022/05/23 00:51:32;;;;;;;4.07;2.10;;;19.40;95.40;;;;;;4196378;28;20036;-67
2022/05/23 00:53:44;;;;;;;5.47;2.83;;;19.50;95.70;;;;;;4201580;28;20086;-67
2022/05/23 00:55:48;;;;;;;6.53;2.58;;;19.50;94.70;;;;;;4197826;28;20727;-67
2022/05/23 00:57:52;;;;;;;4.53;2.67;;;19.40;94.70;;;;;;4203156;28;20040;-67
2022/05/23 00:59:53;;;;;;;4.85;2.47;;;19.50;95.20;;;;;;4204641;28;20036;-67
2022/05/23 01:01:54;;;;;;;5.47;2.78;;;19.50;95.00;;;;;;4203907;28;20041;-68
2022/05/23 01:03:55;;;;;;;6.47;3.45;;;19.40;95.00;;;;;;4201751;28;20119;-67
2022/05/23 01:05:56;;;;;;;7.32;3.42;;;19.30;94.70;;;;;;4198683;28;20064;-67
2022/05/23 01:07:56;;;;;;;6.22;2.50;;;19.30;94.90;;;;;;4202065;28;20115;-67
2022/05/23 01:09:57;;;;;;;7.60;2.92;;;19.30;95.00;;;;;;4208128;28;20043;-67
2022/05/23 01:11:59;;;;;;;7.82;2.67;;;19.30;95.00;;;;;;4202150;28;20032;-67
2022/05/23 01:13:59;;;;;;;8.23;3.05;;;19.30;95.10;;;;;;4199031;28;20032;-67
2022/05/23 01:16:00;;;;;;;7.13;2.88;;;19.30;95.10;;;;;;4204200;28;20036;-67
2022/05/23 01:18:01;;;;;;;8.45;2.88;;;19.30;95.20;;;;;;4198460;28;20375;-67
2022/05/23 01:20:03;;;;;;;6.35;2.65;;;19.30;95.20;;;;;;4204996;28;20040;-67
2022/05/23 01:22:30;;;;;;;8.43;2.88;;;19.30;95.30;;;;;;4206870;28;20073;-67
2022/05/23 01:24:45;;;;;;;8.70;3.03;;;19.20;95.30;;;;;;4204583;28;20036;-67
2022/05/23 01:26:47;;;;;;;5.97;2.60;;;19.20;95.40;;;;;;4188836;28;20033;-67
2022/05/23 01:28:47;;;;;;;6.72;3.03;;;19.20;95.60;;;;;;4199605;28;20048;-67
2022/05/23 01:30:48;;;;;;;6.88;2.80;;;19.20;95.50;;;;;;4199224;28;20024;-67
2022/05/23 01:32:49;;;;;;;5.53;2.88;;;19.20;95.40;;;;;;4206970;28;20029;-67
2022/05/23 01:34:49;;;;;;;9.65;2.63;;;19.20;95.30;;;;;;4204369;28;20102;-67
2022/05/23 01:36:50;;;;;;;5.55;2.38;;;19.20;95.30;;;;;;4206542;28;20062;-67
2022/05/23 01:38:51;;;;;;;6.38;2.53;;;19.20;95.30;;;;;;4200631;28;20105;-67
2022/05/23 01:40:53;;;;;;;6.40;2.55;;;19.20;95.30;;;;;;4199915;28;20059;-67
2022/05/23 01:42:54;;;;;;;5.82;2.42;;;19.20;95.20;;;;;;4206734;28;20048;-67
2022/05/23 01:44:54;;;;;;;3.30;1.92;;;19.20;95.10;;;;;;4207273;28;20024;-67
2022/05/23 01:46:55;;;;;;;5.28;2.53;;;19.20;95.10;;;;;;4205257;28;20122;-67
2022/05/23 01:48:55;;;;;;;6.03;2.35;;;19.30;95.20;;;;;;4202655;28;20029;-67
2022/05/23 01:50:56;;;;;;;6.43;2.13;;;19.30;95.50;;;;;;4208386;28;20034;-67
2022/05/23 01:52:58;;;;;;;3.75;2.20;;;19.30;94.70;;;;;;4207261;28;20032;-67
2022/05/23 01:54:59;;;;;;;6.45;2.25;;;19.20;94.60;;;;;;4181927;28;20037;-67
2022/05/23 01:57:00;;;;;;;6.22;1.95;;;19.30;94.60;;;;;;4196975;28;20040;-67
2022/05/23 02:01:20;;;;;;;3.63;2.03;;;19.20;94.60;;;;;;4189987;28;20036;-67
2022/05/23 02:03:21;;;;;;;3.65;1.83;;;19.20;94.80;;;;;;4188144;28;20078;-67
2022/05/23 02:05:25;;;;;;;3.40;2.10;;;19.20;94.90;;;;;;4190965;28;20455;-67
2022/05/23 02:07:26;;;;;;;4.78;2.20;;;19.10;94.90;;;;;;4184956;28;20095;-67
2022/05/23 02:09:26;;;;;;;2.55;1.65;;;19.10;95.00;;;;;;4183719;28;20033;-67
2022/05/23 02:11:27;;;;;;;3.58;1.85;;;19.20;95.30;;;;;;4188340;28;21999;-67
2022/05/23 02:13:28;;;;;;;4.88;2.00;;;19.20;95.10;;;;;;4189408;28;20044;-67
2022/05/23 02:15:31;;;;;;;3.83;2.15;;;19.20;95.10;;;;;;4189218;28;20614;-67
2022/05/23 02:17:32;;;;;;;3.28;1.98;;;19.20;95.00;;;;;;4186995;28;20598;-67
2022/05/23 02:19:33;;;;;;;5.15;1.90;;;19.20;94.80;;;;;;4181503;28;20546;-67
2022/05/23 02:21:33;;;;;;;4.40;1.70;;;19.30;94.90;;;;;;4183285;28;20033;-67
2022/05/23 02:23:35;;;;;;;5.93;1.90;;;19.30;94.90;;;;;;4184461;28;20056;-67
2022/05/23 02:25:36;;;;;;;5.77;1.93;;;19.30;94.70;;;;;;4188589;28;20143;-67
2022/05/23 02:27:36;;;;;;;4.28;1.90;;;19.30;94.70;;;;;;4183997;28;20030;-67
2022/05/23 02:29:37;;;;;;;3.92;1.60;;;19.30;94.60;;;;;;4184202;28;20044;-67
2022/05/23 02:31:37;;;;;;;6.68;1.83;;;19.30;94.60;;;;;;4190925;28;20097;-67
2022/05/23 02:33:38;;;;;;;4.43;2.00;;;19.30;94.50;;;;;;4191872;28;20032;-67
2022/05/23 02:35:38;;;;;;;2.22;1.63;;;19.30;94.70;;;;;;4191864;28;20518;-67
2022/05/23 02:37:39;;;;;;;3.78;1.88;;;19.30;94.80;;;;;;4192788;28;20511;-67
2022/05/23 02:39:40;;;;;;;3.67;1.70;;;19.30;94.70;;;;;;4193131;28;20051;-67
2022/05/23 02:41:41;;;;;;;2.22;1.63;;;19.40;95.00;;;;;;4192133;28;20462;-67
2022/05/23 02:43:42;;;;;;;4.28;1.77;;;19.40;95.10;;;;;;4187416;28;20043;-67
2022/05/23 02:45:43;;;;;;;3.25;1.90;;;19.40;95.10;;;;;;4187851;28;20029;-67
2022/05/23 02:47:43;;;;;;;3.47;1.83;;;19.40;94.80;;;;;;4192087;28;20071;-67
2022/05/23 02:49:44;;;;;;;2.88;1.92;;;19.40;94.50;;;;;;4190826;28;20035;-67
2022/05/23 02:51:44;;;;;;;4.55;2.05;;;19.40;94.40;;;;;;4182100;28;20512;-67
2022/05/23 02:53:45;;;;;;;2.53;1.50;;;19.40;95.00;;;;;;4191300;28;20444;-67
2022/05/23 02:55:46;;;;;;;3.08;1.70;;;19.40;94.50;;;;;;4197141;28;20676;-67
2022/05/23 02:57:46;;;;;;;3.25;1.67;;;19.50;94.50;;;;;;4197277;28;20430;-67
2022/05/23 02:59:47;;;;;;;2.03;1.33;;;19.50;94.30;;;;;;4210055;28;20039;-67
2022/05/23 03:04:07;;;;;;;3.63;2.05;;;19.50;94.30;;;;;;4201246;28;20094;-67
2022/05/23 03:06:08;;;;;;;4.40;1.65;;;19.50;95.30;;;;;;4209301;28;20479;-66
2022/05/23 03:08:11;;;;;;;3.03;1.63;;;19.50;94.50;;;;;;4210156;28;20108;-67
2022/05/23 03:10:12;;;;;;;1.95;1.50;;;19.50;94.30;;;;;;4201301;28;20029;-68
2022/05/23 03:12:12;;;;;;;3.67;1.70;;;19.50;94.00;;;;;;4198871;28;20136;-67
2022/05/23 03:14:13;;;;;;;3.55;1.58;;;19.50;94.40;;;;;;4203821;28;20033;-67
2022/05/23 03:16:14;;;;;;;2.40;1.50;;;19.50;94.20;;;;;;4206677;28;20075;-67
2022/05/23 03:18:14;;;;;;;2.85;1.63;;;19.50;94.10;;;;;;4201261;28;20040;-67
2022/05/23 03:20:16;;;;;;;2.17;1.13;;;19.60;94.10;;;;;;4204659;28;20380;-67
2022/05/23 03:26:58;;;;;;;1.70;1.42;;;19.60;94.30;;;;;;4196637;28;20478;-67
2022/05/23 03:29:02;;;;;;;2.03;1.45;;;19.60;94.90;;;;;;4205930;28;20166;-67
2022/05/23 03:31:03;;;;;;;3.65;1.75;;;19.70;94.80;;;;;;4203827;28;20032;-67
2022/05/23 03:33:04;;;;;;;2.93;1.57;;;19.70;94.10;;;;;;4200407;28;20031;-67
2022/05/23 03:35:07;;;;;;;2.60;1.60;;;19.70;94.30;;;;;;4203253;28;20048;-68
2022/05/23 03:37:07;;;;;;;2.30;1.65;;;19.70;94.30;;;;;;4208521;28;20020;-67
2022/05/23 03:39:09;;;;;;;3.30;1.58;;;19.70;93.70;;;;;;4204120;28;20047;-67
2022/05/23 03:41:09;;;;;;;3.45;1.50;;;19.70;93.50;;;;;;4205323;28;20028;-67
2022/05/23 03:43:10;;;;;;;3.75;1.77;;;19.80;94.60;;;;;;4201748;28;20046;-68
2022/05/23 03:45:11;;;;;;;3.17;1.65;;;19.70;93.50;;;;;;4201558;28;20063;-68
2022/05/23 03:47:12;;;;;;;3.30;1.55;;;19.70;93.40;;;;;;4202433;28;20036;-67
2022/05/23 03:49:13;;;;;;;3.38;1.70;;;19.70;93.80;;;;;;4205077;28;20028;-67
2022/05/23 03:51:14;;;;;;;2.83;1.73;;;19.70;93.40;;;;;;4197842;28;20431;-67
2022/05/23 03:53:14;;;;;;;2.30;1.45;;;19.60;93.70;;;;;;4201581;28;20036;-67
2022/05/23 03:55:15;;;;;;;2.22;1.45;;;19.60;93.50;;;;;;4206156;28;20048;-67
2022/05/23 03:57:17;;;;;;;2.33;1.50;;;19.60;94.50;;;;;;4197455;28;20041;-67
2022/05/23 03:59:18;;;;;;;1.95;1.38;;;19.60;95.30;;;;;;4204788;28;20568;-67
2022/05/23 04:01:23;;;;;;;3.05;1.75;;;19.60;96.10;;;;;;4197281;28;20036;-67
2022/05/23 04:03:23;;;;;;;3.88;1.90;;;19.60;95.50;;;;;;4204843;28;20127;-67
2022/05/23 04:05:25;;;;;;;4.75;1.73;;;19.70;94.50;;;;;;4201272;28;20032;-67
2022/05/23 04:07:26;;;;;;;5.68;1.95;;;19.60;94.10;;;;;;4206004;28;20029;-67
2022/05/23 04:09:28;;;;;;;4.43;1.70;;;19.60;94.60;;;;;;4201424;28;20040;-68
2022/05/23 04:11:28;;;;;;;3.72;1.92;;;19.60;94.30;;;;;;4197159;28;20041;-67
2022/05/23 04:13:30;;;;;;;2.15;1.30;;;19.60;94.40;;;;;;4203420;28;20529;-67
2022/05/23 04:15:31;;;;;;;3.60;1.58;;;19.50;94.70;;;;;;4204571;28;21218;-67
2022/05/23 04:17:32;;;;;;;1.80;1.25;;;19.50;94.90;;;;;;4202036;28;20036;-66
2022/05/23 04:19:32;;;;;;;2.60;1.60;;;19.60;94.30;;;;;;4207365;28;20039;-67
2022/05/23 04:21:33;;;;;;;3.53;1.52;;;19.60;94.90;;;;;;4208091;28;20043;-67
2022/05/23 04:23:33;;;;;;;3.05;1.45;;;19.60;94.80;;;;;;4201244;28;20051;-67
2022/05/23 04:25:41;;;;;;;5.38;1.77;;;19.60;94.20;;;;;;4200136;28;20039;-67
2022/05/23 04:27:41;;;;;;;2.17;1.40;;;19.40;95.90;;;;;;4201164;28;20028;-67
2022/05/23 04:29:42;;;;;;;4.43;2.25;;;19.40;95.70;;;;;;4203727;28;20098;-67
2022/05/23 04:31:43;;;;;;;3.35;1.60;;;19.40;96.30;;;;;;4201743;28;20036;-67
2022/05/23 04:36:03;;;;;;;3.15;1.80;;;19.40;96.90;;;;;;4190692;28;20031;-67
2022/05/23 04:38:03;;;;;;;2.63;1.73;;;19.40;96.90;;;;;;4189083;28;20053;-67
2022/05/23 04:40:05;;;;;;;3.20;1.92;;;19.50;96.90;;;;;;4184560;28;20029;-67
2022/05/23 04:42:06;;;;;;;2.60;1.75;;;19.50;97.10;;;;;;4185387;28;20037;-67
2022/05/23 04:44:07;;;;;;;2.00;1.58;;;19.50;97.40;;;;;;4184727;28;20056;-67
2022/05/23 04:46:07;;;;;;;2.40;1.52;;;19.50;97.40;;;;;;4186127;28;20119;-67
2022/05/23 04:50:28;;;;;;;4.32;2.13;;;19.50;97.90;;;;;;4204078;28;20035;-67
2022/05/23 04:52:29;;;;;;;3.28;1.55;;;19.50;98.70;;;;;;4203364;28;20040;-67
2022/05/23 04:54:30;;;;;;;3.95;2.03;;;19.40;98.80;;;;;;4206559;28;20460;-67
2022/05/23 04:56:30;;;;;;;4.70;2.05;;;19.40;98.30;;;;;;4204069;28;21024;-67
2022/05/23 04:58:31;;;;;;;5.43;2.20;;;19.30;98.50;;;;;;4202361;28;20032;-67
2022/05/23 05:00:32;;;;;;;3.67;1.88;;;19.20;99.00;;;;;;4183282;28;20040;-67
2022/05/23 05:02:34;;;;;;;3.75;2.15;;;19.20;98.80;;;;;;4206069;28;20028;-67
2022/05/23 05:04:35;;;;;;;3.78;2.25;;;19.10;98.80;;;;;;4204176;28;20043;-67
2022/05/23 05:06:36;;;;;;;5.25;2.22;;;19.10;98.70;;;;;;4201162;28;20485;-67
2022/05/23 05:08:36;;;;;;;4.80;2.10;;;19.10;99.20;;;;;;4204540;28;20036;-67
2022/05/23 05:10:37;;;;;;;6.90;2.30;;;19.10;99.50;;;;;;4202574;28;20035;-67
2022/05/23 05:12:37;;;;;;;5.40;2.15;;;19.20;99.90;;;;;;4206139;28;20054;-67
2022/05/23 05:14:40;;;;;;;4.97;2.10;;;19.10;99.20;;;;;;4204470;28;20431;-69
2022/05/23 05:16:41;;;;;;;6.57;2.45;;;19.00;99.10;;;;;;4203336;28;20059;-69
2022/05/23 05:18:41;;;;;;;6.32;2.58;;;18.90;99.00;;;;;;4199115;28;20356;-69
2022/05/23 05:20:42;;;;;;;4.75;2.85;;;18.80;99.60;;;;;;4182485;28;20025;-70
2022/05/23 05:22:42;;;;;;;4.72;2.55;;;18.70;99.80;;;;;;4195551;28;20531;-69
2022/05/23 05:24:43;;;;;;;5.35;2.67;;;18.60;99.90;;;;;;4201197;28;20145;-69
2022/05/23 05:26:44;;;;;;;6.40;2.60;;;18.60;99.90;;;;;;4185041;28;20480;-69
2022/05/23 05:28:45;;;;;;;4.72;2.72;;;18.60;99.90;;;;;;4183557;28;20044;-69
2022/05/23 05:30:53;;;;;;;6.57;2.92;;;18.60;99.90;;;;;;4182199;28;20032;-70
2022/05/23 05:33:12;;;;;;;5.93;3.25;;;18.60;99.90;;;;;;4183650;28;20025;-69
2022/05/23 05:35:42;;;;;;;4.18;2.50;;;18.50;99.90;;;;;;4185001;28;20146;-70
2022/05/23 05:37:47;;;;;;;5.18;2.97;;;18.60;99.90;;;;;;4203201;28;20032;-69
2022/05/23 05:39:50;;;;;;;5.18;3.05;;;18.50;99.90;;;;;;4195658;28;20029;-69
2022/05/23 05:42:13;;;;;;;12.63;4.03;;;18.50;99.90;;;;;;4202369;28;20048;-69
2022/05/23 05:44:21;;;;;;;5.82;3.30;;;18.50;99.90;;;;;;4182833;28;20032;-69
2022/05/23 05:46:29;;;;;;;7.47;3.95;;;18.50;99.90;;;;;;4186256;28;20029;-69
2022/05/23 05:48:30;;;;;;;5.47;3.40;;;18.50;99.90;;;;;;4184421;28;20036;-69
2022/05/23 05:50:34;;;;;;;8.77;4.38;;;18.60;99.90;;;;;;4183568;28;20044;-70
2022/05/23 05:52:35;;;;;;;5.65;3.53;;;18.50;99.90;;;;;;4186196;28;20043;-69
2022/05/23 05:54:38;;;;;;;6.88;3.90;;;18.60;99.90;;;;;;4184809;28;20049;-69
2022/05/23 05:56:39;;;;;;;7.20;4.00;;;18.60;99.90;;;;;;4177672;28;20395;-69
2022/05/23 05:58:40;;;;;;;5.43;3.20;;;18.60;99.90;;;;;;4186834;28;20043;-69
2022/05/23 06:00:41;;;;;;;14.57;4.78;;;18.70;99.90;;;;;;4190712;28;20028;-69
2022/05/23 06:02:41;;;;;;;9.23;4.15;;;18.70;99.90;;;;;;4183915;28;20175;-70
2022/05/23 06:04:42;;;;;;;10.13;3.90;;;18.70;99.90;;;;;;4201446;28;20414;-70
2022/05/23 06:11:26;;;;;;;6.95;4.10;;;18.70;99.90;;;;;;4188128;28;20035;-69
2022/05/23 06:13:26;;;;;;;10.98;4.95;;;18.70;99.90;;;;;;4197875;28;20421;-70
2022/05/23 06:15:27;;;;;;;9.00;4.53;;;18.70;99.90;;;;;;4204690;28;20035;-69
2022/05/23 06:17:27;;;;;;;11.38;5.50;;;18.70;99.90;;;;;;4188020;28;20048;-69
2022/05/23 06:19:28;;;;;;;10.13;4.63;;;18.70;99.90;;;;;;4189389;28;20024;-69
2022/05/23 06:21:29;;;;;;;12.25;4.68;;;18.80;99.90;;;;;;4188431;28;20082;-70
2022/05/23 06:23:29;;;;;;;10.15;4.85;;;18.80;99.90;;;;;;4187416;28;20047;-69
2022/05/23 06:25:31;;;;;;;10.18;4.28;;;18.80;99.90;;;;;;4187925;28;20033;-69
2022/05/23 06:27:31;;;;;;;6.55;3.88;;;19.00;99.90;;;;;;4189057;28;20048;-69
2022/05/23 06:29:33;;;;;;;9.15;4.47;;;19.00;99.90;;;;;;4189195;28;20048;-69
2022/05/23 06:31:34;;;;;;;11.40;4.53;;;19.10;99.90;;;;;;4184520;28;20036;-69
2022/05/23 06:33:36;;;;;;;7.35;3.50;;;19.20;99.90;;;;;;4187545;28;20029;-69
2022/05/23 06:35:37;;;;;;;7.53;3.85;;;19.40;99.90;;;;;;4185057;28;20119;-69
2022/05/23 06:37:40;;;;;;;8.77;3.17;;;19.40;99.90;;;;;;4188512;28;20033;-69
2022/05/23 06:39:41;;;;;;;7.80;3.70;;;19.60;99.90;;;;;;4186857;28;20036;-70
2022/05/23 06:41:41;;;;;;;7.80;3.28;;;19.70;99.90;;;;;;4187399;28;20058;-69
2022/05/23 06:43:44;;;;;;;7.20;3.22;;;19.80;99.90;;;;;;4191905;28;20036;-70
2022/05/23 06:45:46;;;;;;;7.78;3.03;;;19.90;99.90;;;;;;4204619;28;20032;-69
2022/05/23 06:47:46;;;;;;;11.60;3.85;;;19.90;99.90;;;;;;4203030;28;20438;-70
2022/05/23 06:49:47;;;;;;;6.75;3.33;;;20.00;99.90;;;;;;4204614;28;20039;-70
2022/05/23 06:51:51;;;;;;;7.63;3.33;;;20.00;99.90;;;;;;4204089;28;20044;-69
2022/05/23 06:53:56;;;;;;;10.27;3.50;;;20.00;99.90;;;;;;4200748;28;20048;-69
2022/05/23 06:55:58;;;;;;;6.15;3.38;;;20.10;99.90;;;;;;4202462;28;20123;-69
2022/05/23 06:57:59;;;;;;;7.43;3.35;;;20.10;99.90;;;;;;4185993;28;20083;-69
2022/05/23 07:00:00;;;;;;;8.90;3.17;;;20.20;99.70;;;;;;4187350;28;20522;-69
2022/05/23 07:02:01;;;;;;;6.63;3.13;;;20.30;99.90;;;;;;4204714;28;20053;-70
2022/05/23 07:04:02;;;;;;;9.60;3.08;;;20.30;99.60;;;;;;4203638;28;20506;-69
2022/05/23 07:13:04;;;;;;;9.70;2.30;;;20.50;97.90;;;;;;4199586;28;20480;-70
2022/05/23 07:15:05;;;;;;;6.18;2.53;;;20.50;97.00;;;;;;4200419;28;20055;-70
2022/05/23 07:17:06;;;;;;;4.82;2.25;;;20.60;96.90;;;;;;4185087;28;20530;-70
2022/05/23 07:19:06;;;;;;;6.90;1.88;;;20.70;97.10;;;;;;4186244;28;20064;-69
2022/05/23 07:21:07;;;;;;;8.45;2.42;;;20.70;96.80;;;;;;4183109;28;20037;-69
2022/05/23 07:23:08;;;;;;;5.53;2.22;;;20.80;96.90;;;;;;4181428;28;20044;-70
2022/05/23 07:25:09;;;;;;;4.60;1.80;;;20.90;96.30;;;;;;4182172;28;20028;-70
2022/05/23 07:27:12;;;;;;;5.68;2.00;;;20.90;96.20;;;;;;4185121;28;20039;-70
2022/05/23 07:29:12;;;;;;;9.70;2.30;;;20.90;95.90;;;;;;4181361;28;20040;-70
2022/05/23 07:31:14;;;;;;;4.25;2.15;;;21.00;95.60;;;;;;4195120;28;20048;-70
2022/05/23 07:33:15;;;;;;;5.85;2.05;;;21.00;95.80;;;;;;4179230;28;20142;-70
2022/05/23 07:35:17;;;;;;;5.03;1.75;;;21.00;95.40;;;;;;4198357;28;20032;-70
2022/05/23 07:37:17;;;;;;;5.85;2.25;;;21.00;95.70;;;;;;4200068;28;20063;-70
2022/05/23 07:39:18;;;;;;;6.40;1.80;;;21.00;96.30;;;;;;4198964;28;20085;-70
2022/05/23 07:41:20;;;;;;;6.20;2.17;;;21.20;96.10;;;;;;4200228;28;20036;-70
2022/05/23 07:43:21;;;;;;;3.63;1.53;;;21.20;95.60;;;;;;4191501;28;20035;-70
2022/05/23 07:45:21;;;;;;;8.70;2.15;;;21.30;95.20;;;;;;4201848;28;20272;-70
2022/05/23 07:47:22;;;;;;;4.35;1.95;;;21.40;95.30;;;;;;4204132;28;20446;-70
2022/05/23 07:49:23;;;;;;;4.13;2.05;;;21.60;95.20;;;;;;4203803;28;20094;-70
2022/05/23 07:51:24;;;;;;;3.75;2.00;;;21.70;95.00;;;;;;4202322;28;20036;-70
2022/05/23 08:00:32;;;;;;;2.65;1.42;;;22.00;94.80;;;;;;4184058;28;20616;-70
2022/05/23 08:02:33;;;;;;;4.78;1.92;;;22.10;94.10;;;;;;4172272;28;20131;-70
2022/05/23 08:04:33;;;;;;;7.20;1.95;;;22.10;93.60;;;;;;4182701;28;20052;-70
2022/05/23 08:06:34;;;;;;;4.32;1.58;;;22.10;93.20;;;;;;4181496;28;20041;-70
2022/05/23 08:08:35;;;;;;;3.55;1.48;;;22.20;93.70;;;;;;4190061;28;20509;-70
2022/05/23 08:10:37;;;;;;;3.53;1.23;;;22.30;93.50;;;;;;4202982;28;20032;-70
2022/05/23 08:12:38;;;;;;;3.50;1.70;;;22.30;93.30;;;;;;4200667;28;20042;-69
2022/05/23 08:14:39;;;;;;;7.10;2.10;;;22.40;93.50;;;;;;4186127;28;20033;-70
2022/05/23 08:16:39;;;;;;;4.07;1.65;;;22.50;92.90;;;;;;4179383;28;20060;-70
2022/05/23 08:18:40;;;;;;;4.68;1.65;;;22.60;92.70;;;;;;4181629;28;20055;-69
2022/05/23 08:20:40;;;;;;;5.25;1.90;;;22.50;92.00;;;;;;4175080;28;20389;-70
2022/05/23 08:22:41;;;;;;;7.68;1.85;;;22.50;91.90;;;;;;4182172;28;20040;-70
2022/05/23 08:24:42;;;;;;;2.65;1.52;;;22.40;91.90;;;;;;4196616;28;20566;-70
2022/05/23 08:26:43;;;;;;;4.38;1.80;;;22.40;91.90;;;;;;4200133;28;20050;-70
2022/05/23 08:28:43;;;;;;;6.35;1.58;;;22.40;92.40;;;;;;4197613;28;20564;-69
2022/05/23 08:30:44;;;;;;;4.20;1.70;;;22.50;92.70;;;;;;4199105;28;20062;-71
2022/05/23 08:32:45;;;;;;;4.20;1.77;;;22.40;92.20;;;;;;4194476;28;20127;-70
2022/05/23 08:34:47;;;;;;;3.22;1.45;;;22.40;92.50;;;;;;4198191;28;20090;-70
2022/05/23 08:36:48;;;;;;;;;;;22.40;92.50;;;;;;4199276;28;20479;-70
2022/05/23 08:38:48;;;;;;;4.07;1.60;;;22.50;92.50;;;;;;4198625;28;19908;-70
2022/05/23 08:41:00;;;;;;;4.68;1.75;;;22.50;92.80;;;;;;4201183;28;20072;-70
2022/05/23 08:43:05;;;;;;;3.67;1.58;;;22.50;92.90;;;;;;4197192;28;20024;-70
2022/05/23 08:45:19;;;;;;;4.30;1.88;;;22.60;92.70;;;;;;4180988;28;20028;-71
2022/05/23 08:47:40;;;;;;;4.38;1.65;;;22.50;92.20;;;;;;4199917;28;20036;-70
2022/05/23 08:50:05;;;;;;;3.05;1.40;;;22.50;92.40;;;;;;4195876;28;20028;-69
2022/05/23 08:52:38;;;;;;;4.18;1.58;;;22.50;92.70;;;;;;4197751;28;20020;-70
2022/05/23 08:54:52;;;;;;;3.47;1.50;;;22.50;92.70;;;;;;4205363;28;20105;-69
2022/05/23 08:56:58;;;;;;;4.43;1.70;;;22.40;92.20;;;;;;4204128;28;20036;-69
2022/05/23 08:59:02;;;;;;;4.38;1.75;;;22.50;92.90;;;;;;4202383;28;20479;-69
2022/05/23 09:01:12;;;;;;;5.45;1.80;;;22.50;92.60;;;;;;4204748;28;20039;-69
2022/05/23 09:03:22;;;;;;;7.47;1.90;;;22.50;92.50;;;;;;4208073;28;20036;-69
2022/05/23 09:05:36;;;;;;;5.82;1.60;;;22.50;92.90;;;;;;4204871;28;20506;-69
2022/05/23 09:07:44;;;;;;;3.15;1.58;;;22.60;92.90;;;;;;4201008;28;20344;-69
2022/05/23 09:09:44;;;;;;;4.10;2.00;;;22.60;92.80;;;;;;4202504;28;20387;-69
2022/05/23 09:11:48;;;;;;;7.40;2.10;;;22.70;93.00;;;;;;4195751;28;20028;-69
2022/05/23 09:13:48;;;;;;;4.45;1.48;;;22.60;92.30;;;;;;4198052;28;20109;-69
2022/05/23 09:15:54;;;;;;;5.10;1.70;;;22.60;92.50;;;;;;4197536;28;20032;-69
2022/05/23 09:18:03;;;;;;;2.92;1.27;;;22.60;92.50;;;;;;4197139;28;20035;-70
2022/05/23 09:20:18;;;;;;;4.72;1.48;;;22.70;92.80;;;;;;4182962;28;20035;-70
2022/05/23 09:22:34;;;;;;;2.58;1.40;;;22.70;92.50;;;;;;4186907;28;20446;-69
2022/05/23 09:25:02;;;;;;;7.07;2.20;;;22.80;92.60;;;;;;4187131;28;20052;-68
2022/05/23 09:27:13;;;;;;;2.17;1.08;;;22.80;93.20;;;;;;4199801;28;20482;-69
2022/05/23 09:29:14;;;;;;;3.38;1.63;;;22.90;93.10;;;;;;4190006;28;20515;-70
2022/05/23 09:31:27;;;;;;;5.20;1.77;;;23.00;92.90;;;;;;4189609;28;20132;-70
2022/05/23 09:33:30;;;;;;;2.88;1.67;;;23.10;92.00;;;;;;4184987;28;20028;-69
2022/05/23 09:35:47;;;;;;;7.10;1.73;;;23.20;92.30;;;;;;4188258;28;20103;-69
2022/05/23 09:38:06;;;;;;;4.00;1.60;;;23.20;92.30;;;;;;4186663;28;20048;-69
2022/05/23 09:40:12;;;;;;;5.47;1.95;;;23.40;91.60;;;;;;4186051;28;20037;-70
2022/05/23 09:49:31;;;;;;;3.97;1.75;;;23.60;91.30;;;;;;4207854;28;20024;-69
2022/05/23 09:51:32;;;;;;;3.45;1.88;;;23.60;90.80;;;;;;4206022;28;20531;-69
2022/05/23 09:53:46;;;;;;;3.55;1.58;;;23.70;91.20;;;;;;4210060;28;20044;-69
2022/05/23 09:55:47;;;;;;;3.55;1.55;;;23.70;91.50;;;;;;4204661;28;20032;-69
2022/05/23 09:57:53;;;;;;;4.15;1.83;;;23.70;91.00;;;;;;4205323;28;20130;-69
2022/05/23 09:59:57;;;;;;;5.15;2.05;;;23.70;91.10;;;;;;4206056;28;20060;-69
2022/05/23 10:02:05;;;;;;;5.00;1.73;;;23.60;91.00;;;;;;4203022;28;20036;-69
2022/05/23 10:04:16;;;;;;;8.85;2.05;;;23.60;91.40;;;;;;4210096;28;20454;-70
2022/05/23 10:06:16;;;;;;;4.13;1.77;;;23.60;91.10;;;;;;4198636;28;20169;-69
2022/05/23 10:08:31;;;;;;;4.80;1.85;;;23.50;90.90;;;;;;4207028;28;20442;-69
2022/05/23 10:10:34;;;;;;;7.40;1.92;;;23.50;91.70;;;;;;4192867;28;20123;-69
2022/05/23 10:12:35;;;;;;;4.00;1.58;;;23.50;91.30;;;;;;4193189;28;20391;-69
2022/05/23 10:14:46;;;;;;;5.25;1.77;;;23.50;91.30;;;;;;4186401;28;20033;-69
2022/05/23 10:16:52;;;;;;;3.97;1.58;;;23.60;91.80;;;;;;4196066;28;20029;-70
2022/05/23 10:19:04;;;;;;;4.43;1.70;;;23.50;91.80;;;;;;4206697;28;20036;-70
2022/05/23 10:21:18;;;;;;;;;;;23.50;91.60;;;;;;4208232;28;20044;-69
2022/05/23 10:23:29;;;;;;;3.80;1.88;;;23.50;91.90;;;;;;4189468;28;20770;-69
2022/05/23 10:25:56;;;;;;;5.97;1.80;;;23.50;91.80;;;;;;4188840;28;20501;-69
2022/05/23 10:28:09;;;;;;;4.63;1.48;;;23.50;92.10;;;;;;4186120;28;20029;-70
2022/05/23 10:30:13;;;;;;;2.75;1.55;;;23.50;91.70;;;;;;4189947;28;20052;-70
2022/05/23 10:32:23;;;;;;;2.47;1.42;;;23.50;92.20;;;;;;4207470;28;20020;-69
2022/05/23 10:34:48;;;;;;;3.63;1.70;;;23.50;91.90;;;;;;4192025;28;20087;-70
2022/05/23 10:36:53;;;;;;;6.68;1.88;;;23.60;92.20;;;;;;4200754;28;20043;-69
2022/05/23 10:42:09;;;;;;;4.68;1.30;;;23.60;92.30;;;;;;4195487;28;20029;-69
2022/05/23 10:44:15;;;;;;;4.57;2.05;;;23.60;92.10;;;;;;4180045;28;20078;-69
2022/05/23 10:46:16;;;;;;;4.57;1.40;;;23.60;92.60;;;;;;4198527;28;20822;-69
2022/05/23 10:48:21;;;;;;;4.22;1.33;;;23.60;92.60;;;;;;4205136;28;20647;-70
2022/05/23 10:50:53;;;;;;;3.28;1.92;;;23.60;92.90;;;;;;4201776;28;20090;-69
2022/05/23 10:53:12;;;;;;;3.38;1.40;;;23.70;92.90;;;;;;4210964;28;20475;-69
2022/05/23 10:55:32;;;;;;;3.45;1.63;;;23.70;92.60;;;;;;4189735;28;20037;-69
2022/05/23 10:58:07;;;;;;;4.28;1.30;;;23.80;92.80;;;;;;4209228;28;20028;-70
2022/05/23 11:00:17;;;;;;;3.42;1.60;;;23.90;93.10;;;;;;4161740;28;20028;-69
2022/05/23 11:02:39;;;;;;;8.77;1.80;;;24.10;92.50;;;;;;4205625;28;20122;-69
2022/05/23 11:05:00;;;;;;;3.72;1.65;;;24.10;92.00;;;;;;4205117;28;20442;-69
2022/05/23 11:07:21;;;;;;;3.92;1.63;;;24.10;91.80;;;;;;4209493;28;20107;-69
2022/05/23 11:09:47;;;;;;;8.65;2.10;;;24.20;92.00;;;;;;4208371;28;20479;-69
2022/05/23 11:12:03;;;;;;;5.15;1.75;;;24.30;92.00;;;;;;4198041;28;20051;-69
2022/05/23 11:14:19;;;;;;;2.55;1.50;;;24.40;91.90;;;;;;4203639;28;20044;-69
2022/05/23 11:16:55;;;;;;;4.32;1.63;;;24.50;92.30;;;;;;4198623;28;20043;-69
2022/05/23 11:19:17;;;;;;;4.13;2.03;;;24.60;92.30;;;;;;4207604;28;20050;-69
2022/05/23 11:21:29;;;;;;;3.60;1.88;;;24.70;92.10;;;;;;4205830;28;20158;-69
2022/05/23 11:23:45;;;;;;;5.30;2.63;;;24.70;91.90;;;;;;4206783;28;20075;-69
2022/05/23 11:25:51;;;;;;;4.45;1.63;;;24.90;92.20;;;;;;4204526;28;20028;-69
2022/05/23 11:35:13;;;;;;;5.50;2.00;;;25.00;91.70;;;;;;4189834;28;20029;-72
2022/05/23 11:39:54;;;;;;;2.80;1.50;;;25.10;91.50;;;;;;4189346;28;20029;-69
2022/05/23 11:41:55;;;;;;;3.50;1.70;;;25.20;91.10;;;;;;4189750;28;20035;-69
2022/05/23 11:43:55;;;;;;;3.63;1.67;;;25.20;91.10;;;;;;4189729;28;20060;-69
2022/05/23 11:46:04;;;;;;;3.15;1.65;;;25.10;91.30;;;;;;4188636;28;20028;-69
2022/05/23 11:48:33;;;;;;;4.65;1.67;;;25.20;91.60;;;;;;4188340;28;20033;-69